Oriska, ND (58063)

8:23 PM CDT on August 21, 2014 (GMT -0500)
Valley City | Change Station
CLOSE
Current Station
Airport
Location: Valley City,
Elevation: 1401 ft
Nearby Weather Stations

Elev 1401 ft 46.94 °N, 98.02 °W | Updated 8 minutes ago

Overcast
Overcast
75 °F
Feels Like 75 °F
N
0
Wind Variable Wind from North

Today
High -- | Low -- °F
--% Chance of Precip.
Yesterday
High -- | Low -- °F
Precip. -- in
6:36 AM 8:31 PM
Waning Crescent, 11% visible
Pressure 29.87 in
Visibility 10.0 miles
Clouds Scattered Clouds 5000 ft
Overcast 6500 ft
Dew Point 73 °F
Humidity 94%
Rainfall 0.05 in
Snow Depth Not available.
UV 0 out of 12
Pollen 6.30 out of 12
Air Quality Not available.
Flu Activity Not available.
METAR KBAC 220115Z AUTO 00000KT 10SM SCT050 OVC065 24/23 A2987 RMK AO2

More Conditions Fewer Conditions

Pressure 29.87 in
Visibility 10.0 miles
Clouds Scattered Clouds 5000 ft
Overcast 6500 ft
Dew Point 73 °F
Humidity 94%
Rainfall 0.05 in
Snow Depth Not available.
UV 0 out of 12
Pollen 6.30 out of 12
Air Quality Not available.
Flu Activity Not available.
METAR KBAC 220115Z AUTO 00000KT 10SM SCT050 OVC065 24/23 A2987 RMK AO2

More Conditions Fewer Conditions

10-Day Weather Forecast

Almanac

Astronomy

Aug. 21, 2014 Rise Set
Actual Time 6:36 AM CDT 8:31 PM CDT
Civil Twilight 6:03 AM CDT 9:03 PM CDT
Nautical Twilight 5:23 AM CDT 9:43 PM CDT
Astronomical Twilight 4:39 AM CDT 10:27 PM CDT
Moon 3:01 AM CDT (8/21) 6:06 PM CDT (8/21)
Length of Visible Light 15h 00m
Length of Day
13h 54m
Tomorrow will be 3m 7s shorter.
Waning Crescent, 11% of the Moon is Illuminated
Today
Waning Crescent
Aug 25
New
Sep 2
First Quarter
Sep 8
Full
Sep 15
Last Quarter

Today's Extremes

State Highs State Lows

Community

WunderPhotos

Upload Photos

1,746,102 photos uploaded!

Nearby

Snow Depth

Station Depth Elevation
No new snow has been reported.

Earthquake Activity

City Distance Mag. Time & Date
No recent earthquake activity has been reported nearby.
Minimum magnitude displayed is 2.5.

Coastal Water Temperatures

Place Temperature
No Stations Reporting

Nearby Weather Stations